Time;durP1;ratioP1;P1;durP2;ratioP2;P2;SDS_P1;SDS_P2;PMS_P1;PMS_P2;Temp;Humidity;BMP_temperature;BMP_pressure;BME280_temperature;BME280_humidity;BME280_pressure;Samples;Min_cycle;Max_cycle;Signal;HPM_P1;HPM_P2
2022/01/21 00:01:25;;;;;;;15.80;4.30;;;5.30;99.90;;;;;;5019069;28;20645;-62
2022/01/21 00:03:51;;;;;;;11.15;2.60;;;5.10;99.90;;;;;;5012885;28;20080;-62
2022/01/21 00:06:17;;;;;;;7.43;2.10;;;5.00;99.90;;;;;;5012141;28;20045;-63
2022/01/21 00:08:45;;;;;;;9.63;1.95;;;5.00;99.90;;;;;;5009974;28;20048;-62
2022/01/21 00:11:13;;;;;;;12.60;2.22;;;4.90;99.90;;;;;;5014041;28;20089;-62
2022/01/21 00:13:39;;;;;;;7.82;2.50;;;4.80;99.90;;;;;;5011798;28;20135;-62
2022/01/21 00:16:22;;;;;;;10.05;1.73;;;4.80;99.90;;;;;;5020250;28;20516;-62
2022/01/21 00:18:56;;;;;;;13.57;2.10;;;4.70;99.90;;;;;;5011655;28;20756;-63
2022/01/21 00:32:32;;;;;;;11.25;2.70;;;4.50;99.90;;;;;;5026740;28;20128;-62
2022/01/21 00:34:58;;;;;;;12.65;2.85;;;4.50;99.90;;;;;;5027244;28;20072;-62
2022/01/21 00:37:23;;;;;;;25.80;3.30;;;4.40;99.90;;;;;;5009307;28;20139;-62
2022/01/21 00:39:56;;;;;;;26.38;4.95;;;4.40;99.90;;;;;;5009298;28;20569;-62
2022/01/21 00:44:48;;;;;;;15.35;2.22;;;4.50;99.90;;;;;;5026377;28;20391;-62
2022/01/21 00:47:14;;;;;;;23.25;3.92;;;4.50;99.90;;;;;;5015942;28;20057;-62
2022/01/21 00:49:39;;;;;;;18.63;3.45;;;4.50;99.90;;;;;;5023259;28;20038;-62
2022/01/21 00:52:05;;;;;;;22.38;4.40;;;4.50;99.90;;;;;;5024990;28;20137;-62
2022/01/21 00:54:31;;;;;;;16.88;2.92;;;4.60;99.90;;;;;;5028981;28;20077;-62
2022/01/21 00:56:56;;;;;;;14.63;2.65;;;4.70;99.90;;;;;;5027467;28;20052;-62
2022/01/21 00:59:22;;;;;;;15.43;2.65;;;4.70;99.90;;;;;;5020064;28;20041;-62
2022/01/21 01:01:47;;;;;;;13.73;3.55;;;4.70;99.90;;;;;;5020651;28;20053;-62
2022/01/21 01:04:13;;;;;;;13.48;2.28;;;4.70;99.90;;;;;;5007880;28;20044;-62
2022/01/21 01:06:39;;;;;;;9.75;2.58;;;4.70;99.90;;;;;;5009006;28;20050;-62
2022/01/21 01:09:04;;;;;;;17.33;2.50;;;4.70;99.90;;;;;;5020381;28;20051;-62
2022/01/21 01:11:56;;;;;;;18.58;3.00;;;4.70;99.90;;;;;;5027976;28;20083;-62
2022/01/21 01:20:02;;;;;;;11.63;2.33;;;4.70;99.90;;;;;;5008872;28;20397;-62
2022/01/21 01:27:56;;;;;;;19.92;4.38;;;4.70;99.90;;;;;;5007801;28;20065;-62
2022/01/21 01:30:25;;;;;;;12.50;2.78;;;4.70;99.90;;;;;;5019808;28;20053;-62
2022/01/21 01:32:53;;;;;;;11.90;2.83;;;4.70;99.90;;;;;;5024868;28;20508;-62
2022/01/21 01:35:21;;;;;;;21.00;3.13;;;4.80;99.90;;;;;;5020758;28;20038;-62
2022/01/21 01:40:45;;;;;;;17.13;3.30;;;4.80;99.90;;;;;;5027794;28;20060;-62
2022/01/21 01:49:26;;;;;;;12.55;2.53;;;4.70;99.90;;;;;;5009969;28;20393;-63
2022/01/21 01:51:27;;;;;;;20.40;3.28;;;4.70;99.90;;;;;;5012807;28;20143;-62
2022/01/21 01:53:57;;;;;;;21.50;3.35;;;4.70;99.90;;;;;;5014057;28;20099;-62
2022/01/21 01:56:27;;;;;;;18.33;2.80;;;4.70;99.90;;;;;;5007063;28;20054;-62
2022/01/21 01:58:53;;;;;;;15.90;2.85;;;4.60;99.90;;;;;;5017574;28;20120;-62
2022/01/21 02:01:18;;;;;;;18.92;3.15;;;4.60;99.90;;;;;;5011511;28;20050;-62
2022/01/21 02:03:44;;;;;;;23.98;3.50;;;4.70;99.90;;;;;;5012294;28;20045;-62
2022/01/21 02:06:10;;;;;;;14.05;2.63;;;4.70;99.90;;;;;;5015456;28;20041;-62
2022/01/21 02:08:35;;;;;;;12.18;2.85;;;4.60;99.90;;;;;;5030955;28;20049;-63
2022/01/21 02:11:01;;;;;;;8.30;2.65;;;4.70;99.90;;;;;;5021137;28;20436;-62
2022/01/21 02:13:31;;;;;;;12.60;2.20;;;4.80;99.90;;;;;;5014035;28;20052;-62
2022/01/21 02:16:02;;;;;;;11.23;1.95;;;4.80;99.90;;;;;;4994016;28;20049;-62
2022/01/21 02:24:12;;;;;;;12.00;2.65;;;4.80;99.90;;;;;;5011384;28;21005;-62
2022/01/21 02:26:39;;;;;;;6.85;1.55;;;4.90;99.90;;;;;;5011399;28;20057;-62
2022/01/21 02:29:06;;;;;;;11.05;2.15;;;4.90;99.90;;;;;;4994724;28;20046;-62
2022/01/21 02:31:33;;;;;;;9.93;1.73;;;4.80;99.90;;;;;;5027817;28;20505;-62
2022/01/21 02:34:00;;;;;;;8.15;2.08;;;4.80;99.90;;;;;;5027153;28;20128;-62
2022/01/21 02:36:26;;;;;;;9.05;2.20;;;4.80;99.90;;;;;;5023782;28;20052;-62
2022/01/21 02:38:52;;;;;;;10.38;2.50;;;4.70;99.90;;;;;;5011156;28;20049;-62
2022/01/21 02:41:18;;;;;;;10.45;1.50;;;4.70;99.90;;;;;;5013710;28;20048;-62
2022/01/21 02:43:43;;;;;;;10.10;1.80;;;4.70;99.90;;;;;;5011893;28;20049;-62
2022/01/21 02:46:10;;;;;;;10.18;1.77;;;4.70;99.90;;;;;;5021433;28;20045;-62
2022/01/21 02:48:38;;;;;;;9.63;2.00;;;4.60;99.90;;;;;;5028776;28;20108;-62
2022/01/21 02:51:09;;;;;;;10.80;1.52;;;4.60;99.90;;;;;;5017786;28;20529;-62
2022/01/21 02:54:03;;;;;;;5.55;1.60;;;4.60;99.90;;;;;;5011422;28;20533;-62
2022/01/21 02:56:25;;;;;;;16.85;2.20;;;4.50;99.90;;;;;;5009410;28;20061;-62
2022/01/21 02:58:50;;;;;;;16.60;2.78;;;4.60;99.90;;;;;;5012664;28;20426;-62
2022/01/21 03:01:18;;;;;;;15.38;2.50;;;4.50;99.90;;;;;;5030023;28;20398;-62
2022/01/21 03:03:45;;;;;;;16.13;2.13;;;4.50;99.90;;;;;;5030241;28;20539;-62
2022/01/21 03:06:15;;;;;;;15.82;2.65;;;4.50;99.90;;;;;;5030640;28;20385;-62
2022/01/21 03:08:42;;;;;;;9.98;2.00;;;4.50;99.90;;;;;;5011660;28;20045;-62
2022/01/21 03:11:07;;;;;;;15.30;3.83;;;4.40;99.90;;;;;;5013078;28;20091;-62
2022/01/21 03:13:33;;;;;;;18.98;2.85;;;4.40;99.90;;;;;;5026638;28;20049;-62
2022/01/21 03:15:59;;;;;;;14.43;2.60;;;4.40;99.90;;;;;;5019872;28;20545;-62
2022/01/21 03:18:24;;;;;;;15.95;2.83;;;4.30;99.90;;;;;;5017997;28;20397;-62
2022/01/21 03:20:50;;;;;;;11.27;3.25;;;4.30;99.90;;;;;;5012114;28;20084;-62
2022/01/21 03:23:16;;;;;;;11.70;2.33;;;4.30;99.90;;;;;;5027965;28;20115;-62
2022/01/21 03:25:44;;;;;;;12.30;2.72;;;4.20;99.90;;;;;;5030617;28;20075;-62
2022/01/21 03:28:11;;;;;;;14.73;2.55;;;4.20;99.90;;;;;;5018731;28;20053;-62
2022/01/21 03:30:37;;;;;;;20.20;2.90;;;4.20;99.90;;;;;;5013087;28;20130;-62
2022/01/21 03:33:03;;;;;;;14.13;2.78;;;4.20;99.90;;;;;;5027760;28;20545;-62
2022/01/21 03:35:28;;;;;;;13.45;3.17;;;4.20;99.90;;;;;;5029304;28;20053;-62
2022/01/21 03:37:54;;;;;;;13.02;2.38;;;4.30;99.90;;;;;;5011169;28;20132;-62
2022/01/21 03:40:20;;;;;;;20.48;3.00;;;4.30;99.90;;;;;;5026684;28;20037;-62
2022/01/21 03:42:45;;;;;;;22.10;2.65;;;4.30;99.90;;;;;;5019009;28;20089;-62
2022/01/21 03:45:12;;;;;;;14.68;2.35;;;4.30;99.90;;;;;;5016060;28;20406;-62
2022/01/21 03:47:37;;;;;;;14.32;2.13;;;4.30;99.90;;;;;;5028391;28;20416;-62
2022/01/21 03:50:21;;;;;;;15.00;2.88;;;4.40;99.90;;;;;;5029394;28;20124;-62
2022/01/21 03:52:47;;;;;;;13.80;3.45;;;4.30;99.90;;;;;;5021229;28;20128;-62
2022/01/21 03:55:13;;;;;;;12.63;2.47;;;4.30;99.90;;;;;;5009566;28;20125;-62
2022/01/21 03:57:38;;;;;;;15.93;2.70;;;4.30;99.90;;;;;;5010468;28;20046;-62
2022/01/21 04:00:07;;;;;;;14.05;2.13;;;4.30;99.90;;;;;;5017749;28;20874;-62
2022/01/21 04:02:33;;;;;;;14.90;2.38;;;4.40;99.90;;;;;;5024211;28;20148;-62
2022/01/21 04:04:58;;;;;;;20.17;3.85;;;4.50;99.90;;;;;;5010548;28;20541;-62
2022/01/21 04:07:24;;;;;;;11.30;1.88;;;4.50;99.90;;;;;;5029694;28;20046;-62
2022/01/21 04:09:49;;;;;;;16.90;3.20;;;4.50;99.90;;;;;;5018105;28;20050;-62
2022/01/21 04:12:15;;;;;;;10.05;2.30;;;4.50;99.90;;;;;;5009954;28;20041;-62
2022/01/21 04:14:42;;;;;;;13.68;2.33;;;4.50;99.90;;;;;;5015293;28;20108;-62
2022/01/21 04:17:07;;;;;;;11.63;3.58;;;4.40;99.90;;;;;;5020003;28;20044;-62
2022/01/21 04:19:34;;;;;;;16.13;2.72;;;4.40;99.90;;;;;;5028099;28;20049;-62
2022/01/21 04:21:59;;;;;;;18.40;2.75;;;4.40;99.90;;;;;;5027924;28;20416;-62
2022/01/21 04:24:25;;;;;;;11.40;2.45;;;4.40;99.90;;;;;;5020210;28;20053;-62
2022/01/21 04:26:50;;;;;;;8.88;2.10;;;4.50;99.90;;;;;;5008823;28;20397;-62
2022/01/21 04:29:16;;;;;;;11.20;1.55;;;4.40;99.90;;;;;;5012586;28;20584;-62
2022/01/21 04:31:41;;;;;;;9.48;2.22;;;4.50;99.90;;;;;;5009432;28;20053;-62
2022/01/21 04:34:07;;;;;;;16.38;2.78;;;4.50;99.90;;;;;;5008860;28;20054;-62
2022/01/21 04:36:34;;;;;;;17.33;3.53;;;4.50;99.90;;;;;;5028985;28;20049;-62
2022/01/21 04:39:02;;;;;;;8.48;2.13;;;4.60;99.90;;;;;;5028521;28;20053;-62
2022/01/21 04:47:12;;;;;;;10.20;1.80;;;4.50;99.90;;;;;;5020778;28;20046;-62
2022/01/21 04:47:18;;;;;;;12.60;2.20;;;4.60;99.90;;;;;;5028296;28;20112;-62
2022/01/21 04:49:45;;;;;;;19.30;2.65;;;4.50;99.90;;;;;;5027623;28;20135;-62
2022/01/21 04:52:11;;;;;;;12.98;1.83;;;4.50;99.90;;;;;;5011182;28;20115;-61
2022/01/21 04:54:37;;;;;;;18.20;2.72;;;4.50;99.90;;;;;;5008679;28;20041;-62
2022/01/21 04:57:04;;;;;;;11.40;1.77;;;4.50;99.90;;;;;;5008982;28;20177;-62
2022/01/21 04:59:30;;;;;;;7.85;2.05;;;4.50;99.90;;;;;;5016729;28;20045;-62
2022/01/21 05:01:57;;;;;;;8.20;1.13;;;4.50;99.90;;;;;;5008246;28;20042;-62
2022/01/21 05:04:22;;;;;;;9.73;1.73;;;4.50;99.90;;;;;;5009488;28;20052;-62
2022/01/21 05:06:51;;;;;;;11.32;1.45;;;4.50;99.90;;;;;;5017099;28;20045;-62
2022/01/21 05:09:17;;;;;;;8.40;2.28;;;4.40;99.90;;;;;;5027634;28;20124;-62
2022/01/21 05:11:44;;;;;;;11.68;1.58;;;4.40;99.90;;;;;;5015604;28;20796;-62
2022/01/21 05:14:23;;;;;;;12.70;2.70;;;4.40;99.90;;;;;;5012263;28;20034;-62
2022/01/21 05:16:51;;;;;;;11.27;2.05;;;4.50;99.90;;;;;;5008346;28;20045;-62
2022/01/21 05:19:18;;;;;;;15.23;2.75;;;4.50;99.90;;;;;;5024374;28;20128;-62
2022/01/21 05:21:49;;;;;;;11.32;2.58;;;4.60;99.90;;;;;;5027642;28;20080;-62
2022/01/21 05:24:17;;;;;;;18.10;3.20;;;4.60;99.90;;;;;;5019118;28;20440;-62
2022/01/21 05:26:52;;;;;;;10.55;1.88;;;4.70;99.90;;;;;;4997538;28;20128;-62
2022/01/21 05:29:20;;;;;;;15.20;2.15;;;4.60;99.90;;;;;;5024054;28;20220;-62
2022/01/21 05:31:46;;;;;;;11.55;2.53;;;4.70;99.90;;;;;;5027465;28;20103;-62
2022/01/21 05:34:12;;;;;;;14.48;2.22;;;4.60;99.90;;;;;;5026007;28;20505;-62
2022/01/21 05:36:40;;;;;;;11.40;3.35;;;4.60;99.90;;;;;;5027511;28;20107;-62
2022/01/21 05:39:07;;;;;;;11.73;2.58;;;4.60;99.90;;;;;;5013712;28;20141;-62
2022/01/21 05:41:33;;;;;;;15.90;2.25;;;4.50;99.90;;;;;;5012729;28;20128;-62
2022/01/21 05:44:07;;;;;;;11.07;1.75;;;4.50;99.90;;;;;;5025767;28;20124;-62
2022/01/21 05:46:54;;;;;;;14.30;3.35;;;4.50;99.90;;;;;;5027296;28;20112;-62
2022/01/21 05:49:21;;;;;;;20.13;2.13;;;4.50;99.90;;;;;;5008322;28;20049;-62
2022/01/21 05:51:46;;;;;;;22.40;4.55;;;4.40;99.90;;;;;;5026165;28;20041;-62
2022/01/21 05:54:13;;;;;;;11.15;1.60;;;4.50;99.90;;;;;;5025581;28;20481;-62
2022/01/21 05:56:39;;;;;;;20.23;3.05;;;4.40;99.90;;;;;;5021860;28;20050;-62
2022/01/21 05:59:06;;;;;;;11.82;2.28;;;4.40;99.90;;;;;;5026702;28;20123;-62
2022/01/21 06:01:32;;;;;;;9.98;1.67;;;4.40;99.90;;;;;;5020908;28;20057;-62
2022/01/21 06:03:58;;;;;;;13.35;2.63;;;4.30;99.90;;;;;;5007850;28;20508;-62
2022/01/21 06:06:24;;;;;;;9.73;2.78;;;4.30;99.90;;;;;;5007742;28;20038;-62
2022/01/21 06:08:49;;;;;;;7.53;2.42;;;4.30;99.90;;;;;;5008094;28;20481;-62
2022/01/21 06:11:15;;;;;;;11.80;2.28;;;4.30;99.90;;;;;;5007442;28;20126;-62
2022/01/21 06:13:41;;;;;;;20.88;3.35;;;4.30;99.90;;;;;;5021882;28;20057;-62
2022/01/21 06:16:06;;;;;;;19.60;4.32;;;4.30;99.90;;;;;;5008084;28;20065;-62
2022/01/21 06:18:32;;;;;;;16.70;3.38;;;4.40;99.90;;;;;;5005151;28;20053;-62
2022/01/21 06:20:57;;;;;;;18.88;3.10;;;4.40;99.90;;;;;;5026860;28;20064;-62
2022/01/21 06:23:24;;;;;;;12.90;2.75;;;4.50;99.90;;;;;;5020254;28;20135;-62
2022/01/21 06:25:49;;;;;;;24.52;4.03;;;4.50;99.90;;;;;;5012397;28;20046;-62
2022/01/21 06:28:15;;;;;;;19.48;2.67;;;4.50;99.90;;;;;;5007610;28;20100;-62
2022/01/21 06:30:40;;;;;;;29.10;4.72;;;4.50;99.90;;;;;;5008741;28;20092;-62
2022/01/21 06:33:06;;;;;;;18.77;3.40;;;4.60;99.90;;;;;;5024564;28;20045;-62
2022/01/21 06:35:31;;;;;;;15.52;3.60;;;4.60;99.90;;;;;;5031003;28;20041;-62
2022/01/21 06:37:57;;;;;;;14.52;4.30;;;4.60;99.90;;;;;;5014411;28;20058;-62
2022/01/21 06:40:23;;;;;;;22.77;4.45;;;4.70;99.90;;;;;;5011299;28;20064;-62
2022/01/21 06:42:50;;;;;;;27.27;3.58;;;4.70;99.90;;;;;;5014330;28;20050;-62
2022/01/21 06:45:16;;;;;;;28.33;4.25;;;4.70;99.90;;;;;;5011039;28;20560;-62
2022/01/21 06:47:42;;;;;;;18.73;3.47;;;4.70;99.90;;;;;;5013347;28;20424;-62
2022/01/21 06:50:08;;;;;;;19.45;3.85;;;4.70;99.90;;;;;;5016239;28;20049;-62
2022/01/21 06:52:33;;;;;;;20.08;3.83;;;4.70;99.90;;;;;;5029695;28;20156;-62
2022/01/21 06:55:00;;;;;;;27.60;3.95;;;4.70;99.90;;;;;;5009363;28;20049;-62
2022/01/21 06:57:27;;;;;;;18.63;3.15;;;4.80;99.90;;;;;;5030088;28;20049;-62
2022/01/21 06:59:53;;;;;;;16.75;2.40;;;4.80;99.90;;;;;;5030907;28;20053;-62
2022/01/21 07:02:19;;;;;;;14.48;3.97;;;4.80;99.90;;;;;;5022885;28;20497;-62
2022/01/21 07:04:50;;;;;;;18.05;3.35;;;4.80;99.90;;;;;;5030965;28;20080;-62
2022/01/21 07:07:16;;;;;;;24.30;3.67;;;4.70;99.90;;;;;;5023506;28;20041;-62
2022/01/21 07:09:42;;;;;;;17.63;4.28;;;4.60;99.90;;;;;;5025829;28;20046;-62
2022/01/21 07:12:08;;;;;;;13.60;3.35;;;4.60;99.90;;;;;;5011157;28;20045;-62
2022/01/21 07:14:34;;;;;;;13.77;2.95;;;4.60;99.90;;;;;;4993886;28;20130;-62
2022/01/21 07:16:59;;;;;;;13.50;2.78;;;4.60;99.90;;;;;;5011147;28;20522;-63
2022/01/21 07:19:25;;;;;;;19.45;3.75;;;4.60;99.90;;;;;;5011115;28;20052;-62
2022/01/21 07:21:50;;;;;;;17.88;3.63;;;4.60;99.90;;;;;;4993000;28;20073;-62
2022/01/21 07:24:16;;;;;;;13.50;3.10;;;4.50;99.90;;;;;;5010410;28;20054;-62
2022/01/21 07:26:42;;;;;;;22.10;3.75;;;4.50;99.90;;;;;;5011078;28;20121;-62
2022/01/21 07:29:07;;;;;;;21.35;3.88;;;4.50;99.90;;;;;;5016663;28;20092;-62
2022/01/21 07:31:33;;;;;;;30.55;3.72;;;4.50;99.90;;;;;;5022679;28;20088;-62
2022/01/21 07:34:04;;;;;;;19.23;3.55;;;4.50;99.90;;;;;;5027834;28;20056;-62
2022/01/21 07:36:30;;;;;;;20.60;3.70;;;4.50;99.90;;;;;;5011033;28;20048;-62
2022/01/21 07:38:55;;;;;;;23.40;4.35;;;4.50;99.90;;;;;;5009467;28;20699;-62
2022/01/21 07:41:21;;;;;;;13.98;3.50;;;4.50;99.90;;;;;;5018298;28;20107;-62
2022/01/21 07:43:46;;;;;;;18.92;3.28;;;4.50;99.90;;;;;;5009314;28;20049;-62
2022/01/21 07:46:12;;;;;;;21.58;3.53;;;4.40;99.90;;;;;;5010054;28;20054;-62
2022/01/21 07:48:37;;;;;;;18.45;3.47;;;4.50;99.90;;;;;;5017444;28;20042;-62
2022/01/21 07:51:03;;;;;;;21.52;3.25;;;4.60;99.90;;;;;;5009523;28;20046;-62
2022/01/21 07:53:28;;;;;;;26.30;5.18;;;4.60;99.90;;;;;;5012952;28;20055;-63
2022/01/21 07:55:54;;;;;;;22.08;5.28;;;4.70;99.90;;;;;;5004978;28;20045;-62
2022/01/21 07:58:20;;;;;;;21.73;5.07;;;4.80;99.90;;;;;;5019434;28;20037;-62
2022/01/21 08:00:46;;;;;;;19.55;3.00;;;4.80;99.90;;;;;;5013124;28;20054;-62
2022/01/21 08:03:12;;;;;;;28.92;4.40;;;4.90;99.90;;;;;;5012795;28;20391;-63
2022/01/21 08:05:38;;;;;;;29.25;4.97;;;4.90;99.90;;;;;;4992227;28;20112;-62
2022/01/21 08:08:04;;;;;;;19.95;4.07;;;4.90;99.90;;;;;;5026342;28;20516;-62
2022/01/21 08:10:31;;;;;;;20.45;3.63;;;4.90;99.90;;;;;;5021602;28;20088;-62
2022/01/21 08:12:57;;;;;;;28.52;4.45;;;4.90;99.90;;;;;;5015561;28;20049;-62
2022/01/21 08:15:23;;;;;;;24.17;3.95;;;4.90;99.90;;;;;;5014270;28;20053;-62
2022/01/21 08:17:48;;;;;;;26.20;4.47;;;5.00;99.90;;;;;;5016741;28;20078;-62
2022/01/21 08:20:14;;;;;;;26.17;4.32;;;5.00;99.90;;;;;;5015225;28;20965;-62
2022/01/21 08:22:40;;;;;;;21.40;3.33;;;5.00;99.90;;;;;;5014656;28;20046;-62
2022/01/21 08:25:08;;;;;;;37.13;5.97;;;5.00;99.90;;;;;;5013890;28;20061;-62
2022/01/21 08:27:34;;;;;;;25.02;3.33;;;5.00;99.90;;;;;;5014173;28;20054;-62
2022/01/21 08:29:59;;;;;;;30.63;5.75;;;5.00;99.90;;;;;;5026089;28;20135;-62
2022/01/21 08:32:25;;;;;;;19.85;4.30;;;5.00;99.90;;;;;;5026865;28;20052;-62
2022/01/21 08:34:51;;;;;;;27.98;4.53;;;5.00;99.90;;;;;;5025509;28;20041;-62
2022/01/21 08:37:17;;;;;;;24.88;3.63;;;5.00;99.90;;;;;;5006959;28;20053;-62
2022/01/21 08:39:43;;;;;;;19.45;3.72;;;5.00;99.90;;;;;;5020961;28;20080;-61
2022/01/21 08:42:09;;;;;;;30.27;4.65;;;5.00;99.90;;;;;;5026300;28;20089;-62
2022/01/21 08:44:35;;;;;;;19.17;4.25;;;5.00;99.90;;;;;;5009109;28;20077;-62
2022/01/21 08:47:02;;;;;;;17.90;2.75;;;5.00;99.90;;;;;;5025786;28;20472;-62
2022/01/21 08:49:27;;;;;;;24.77;3.78;;;5.10;99.90;;;;;;5012178;28;20410;-62
2022/01/21 08:51:56;;;;;;;27.83;4.53;;;5.10;99.90;;;;;;5009183;28;20057;-62
2022/01/21 08:54:22;;;;;;;28.08;4.85;;;5.10;99.90;;;;;;5008073;28;20050;-62
2022/01/21 08:56:50;;;;;;;32.38;4.38;;;5.20;99.90;;;;;;5009691;28;20118;-63
2022/01/21 08:59:17;;;;;;;30.48;4.72;;;5.30;99.90;;;;;;5008310;28;20161;-62
2022/01/21 09:01:44;;;;;;;26.63;4.40;;;5.30;99.90;;;;;;5013343;28;20052;-62
2022/01/21 09:04:10;;;;;;;22.15;4.00;;;5.40;99.90;;;;;;5019659;28;20049;-62
2022/01/21 09:06:35;;;;;;;26.67;4.68;;;5.50;99.90;;;;;;5009135;28;20049;-62
2022/01/21 09:09:02;;;;;;;20.60;3.58;;;5.60;99.90;;;;;;5009721;28;20468;-62
2022/01/21 09:11:27;;;;;;;30.48;4.28;;;5.60;99.90;;;;;;5027423;28;20090;-62
2022/01/21 09:13:53;;;;;;;25.85;3.83;;;5.70;99.90;;;;;;5014370;28;20054;-62
2022/01/21 09:16:19;;;;;;;24.58;4.82;;;5.70;99.90;;;;;;5007610;28;20038;-62
2022/01/21 09:18:51;;;;;;;23.92;3.45;;;5.70;99.90;;;;;;5012917;28;20132;-62
2022/01/21 09:21:20;;;;;;;23.27;4.03;;;5.80;99.90;;;;;;5028232;28;20045;-62
2022/01/21 09:23:48;;;;;;;19.25;3.20;;;5.90;99.90;;;;;;5024088;28;20085;-62
2022/01/21 09:26:18;;;;;;;26.80;4.93;;;5.90;99.90;;;;;;5008917;28;20061;-62
2022/01/21 09:28:44;;;;;;;24.60;3.50;;;6.10;99.90;;;;;;5026219;28;20037;-62
2022/01/21 09:31:10;;;;;;;29.58;4.63;;;6.20;99.90;;;;;;5027651;28;20056;-62
2022/01/21 09:33:37;;;;;;;27.48;3.80;;;6.30;99.90;;;;;;5006357;28;20054;-62
2022/01/21 09:36:03;;;;;;;29.58;5.32;;;6.30;99.90;;;;;;5007553;28;20042;-62
2022/01/21 09:38:29;;;;;;;23.40;4.13;;;6.50;99.90;;;;;;5009615;28;20769;-62
2022/01/21 09:40:56;;;;;;;30.23;4.25;;;6.60;99.90;;;;;;5009747;28;20057;-62
2022/01/21 09:43:23;;;;;;;19.73;4.90;;;6.60;99.90;;;;;;5018691;28;20049;-62
2022/01/21 09:45:54;;;;;;;24.05;4.78;;;6.70;99.90;;;;;;5009280;28;20049;-62
2022/01/21 09:48:23;;;;;;;19.42;3.47;;;6.70;99.90;;;;;;5013470;28;20049;-62
2022/01/21 09:50:51;;;;;;;24.25;4.00;;;6.80;99.90;;;;;;5002151;28;20485;-62
2022/01/21 09:53:24;;;;;;;20.92;3.25;;;6.80;99.90;;;;;;5017004;28;20048;-62
2022/01/21 09:55:49;;;;;;;16.92;2.65;;;6.80;99.90;;;;;;5028420;28;20052;-62
2022/01/21 09:58:16;;;;;;;23.50;4.75;;;7.00;99.90;;;;;;5008466;28;20053;-62
2022/01/21 10:00:42;;;;;;;14.90;4.25;;;7.00;99.90;;;;;;5014455;28;20046;-63
2022/01/21 10:03:07;;;;;;;16.83;3.40;;;7.10;99.90;;;;;;5015361;28;20057;-62
2022/01/21 10:05:33;;;;;;;23.05;3.78;;;7.00;99.90;;;;;;5024184;28;20702;-63
2022/01/21 10:07:59;;;;;;;16.75;2.47;;;7.00;99.90;;;;;;5030672;28;20037;-63
2022/01/21 10:10:25;;;;;;;14.18;2.83;;;7.00;99.90;;;;;;5024107;28;20084;-62
2022/01/21 10:13:00;;;;;;;18.63;4.25;;;7.10;99.90;;;;;;5006259;28;20057;-62
2022/01/21 10:15:26;;;;;;;13.63;3.40;;;7.20;99.90;;;;;;5013604;28;20548;-62
2022/01/21 10:18:19;;;;;;;15.40;3.17;;;7.30;99.90;;;;;;5012618;28;20046;-62
2022/01/21 10:21:10;;;;;;;22.38;3.92;;;7.30;99.90;;;;;;4997450;28;20061;-62
2022/01/21 10:23:40;;;;;;;17.15;2.92;;;7.40;99.90;;;;;;5012015;28;20096;-62
2022/01/21 10:26:10;;;;;;;22.30;3.58;;;7.50;99.90;;;;;;5014924;28;20048;-62
2022/01/21 10:28:38;;;;;;;27.42;4.25;;;7.50;99.90;;;;;;5003739;28;20061;-63
2022/01/21 10:31:14;;;;;;;22.55;3.40;;;7.50;99.90;;;;;;5012927;28;20461;-62
2022/01/21 10:33:53;;;;;;;19.63;3.17;;;7.60;99.90;;;;;;5013064;28;20061;-63
2022/01/21 10:36:32;;;;;;;15.18;3.65;;;7.60;99.90;;;;;;5019953;28;20041;-62
2022/01/21 10:39:10;;;;;;;21.40;3.33;;;7.70;99.90;;;;;;5030063;28;20049;-63
2022/01/21 10:41:40;;;;;;;18.48;3.78;;;7.70;99.90;;;;;;5030453;28;20052;-62
2022/01/21 10:44:10;;;;;;;15.13;2.63;;;7.70;99.90;;;;;;5021552;28;20425;-62
2022/01/21 10:46:38;;;;;;;25.00;4.07;;;7.70;99.90;;;;;;5012421;28;20037;-63
2022/01/21 10:49:10;;;;;;;17.30;3.42;;;7.60;99.90;;;;;;5011313;28;20052;-62
2022/01/21 10:51:38;;;;;;;32.38;5.00;;;7.60;99.90;;;;;;5029336;28;20053;-62
2022/01/21 10:54:13;;;;;;;19.88;3.13;;;7.70;99.90;;;;;;5029025;28;20501;-63
2022/01/21 10:56:39;;;;;;;13.45;2.55;;;7.70;99.90;;;;;;5031671;28;20094;-62
2022/01/21 10:59:04;;;;;;;17.85;3.15;;;7.70;99.90;;;;;;5012158;28;20515;-63
2022/01/21 11:01:30;;;;;;;11.75;2.72;;;7.70;99.90;;;;;;5010622;28;20058;-62
2022/01/21 11:04:11;;;;;;;9.45;2.35;;;7.60;99.90;;;;;;5022283;28;20532;-62
2022/01/21 11:06:56;;;;;;;23.35;4.55;;;7.60;99.90;;;;;;5023897;28;20178;-62
2022/01/21 11:09:28;;;;;;;13.38;3.33;;;7.60;99.90;;;;;;5020213;28;21166;-62
2022/01/21 11:12:10;;;;;;;13.88;2.95;;;7.60;99.90;;;;;;4996430;28;20064;-62
2022/01/21 11:14:37;;;;;;;24.05;4.63;;;7.60;99.90;;;;;;5017647;28;20050;-62
2022/01/21 11:17:08;;;;;;;18.65;3.40;;;7.60;99.90;;;;;;4992262;28;20107;-62
2022/01/21 11:19:37;;;;;;;21.67;3.28;;;7.60;99.90;;;;;;5011256;28;20133;-62
2022/01/21 11:22:04;;;;;;;19.75;3.42;;;7.60;99.90;;;;;;5008879;28;20038;-62
2022/01/21 11:24:30;;;;;;;17.08;3.78;;;7.70;99.90;;;;;;5010833;28;20125;-62
2022/01/21 11:27:07;;;;;;;13.07;4.65;;;7.70;99.90;;;;;;5010259;28;20049;-63
2022/01/21 11:29:33;;;;;;;16.38;3.70;;;7.90;99.90;;;;;;5025069;28;20526;-63
2022/01/21 11:31:59;;;;;;;29.15;5.25;;;7.90;99.90;;;;;;5027760;28;20497;-63
2022/01/21 11:34:25;;;;;;;17.25;3.55;;;8.00;99.90;;;;;;5016760;28;20046;-63
2022/01/21 11:36:51;;;;;;;21.35;2.65;;;8.00;99.90;;;;;;5010010;28;20743;-63
2022/01/21 11:39:21;;;;;;;20.45;2.88;;;8.00;99.90;;;;;;5016429;28;20054;-63
2022/01/21 11:41:49;;;;;;;18.67;4.07;;;8.10;99.90;;;;;;5025024;28;20095;-63
2022/01/21 11:44:20;;;;;;;12.48;3.30;;;8.00;99.90;;;;;;5020761;28;20045;-63
2022/01/21 11:47:00;;;;;;;18.83;4.43;;;8.10;99.90;;;;;;5006659;28;20053;-63
2022/01/21 11:49:28;;;;;;;31.05;4.63;;;8.10;99.90;;;;;;5012182;28;20049;-63
2022/01/21 11:52:42;;;;;;;18.98;3.50;;;8.20;99.90;;;;;;5018047;28;20489;-61
2022/01/21 11:55:08;;;;;;;16.55;3.70;;;8.30;99.90;;;;;;4985167;28;20049;-61
2022/01/21 11:57:34;;;;;;;21.13;4.70;;;8.30;99.90;;;;;;4984805;28;20042;-62
2022/01/21 12:00:16;;;;;;;29.55;6.32;;;8.30;99.90;;;;;;5007678;28;20050;-62
2022/01/21 12:02:50;;;;;;;11.98;2.80;;;8.30;99.90;;;;;;5027286;28;20132;-63
2022/01/21 12:05:26;;;;;;;22.02;3.42;;;8.30;99.90;;;;;;5024611;28;20302;-63
2022/01/21 12:07:51;;;;;;;18.35;3.88;;;8.20;99.90;;;;;;5020024;28;20047;-62
2022/01/21 12:10:18;;;;;;;25.15;3.67;;;8.20;99.90;;;;;;5023976;28;20125;-62
2022/01/21 12:13:00;;;;;;;27.95;5.65;;;8.20;99.90;;;;;;5010378;28;20054;-63
2022/01/21 12:15:30;;;;;;;19.23;3.00;;;8.30;99.90;;;;;;5009293;28;20524;-63
2022/01/21 12:20:55;;;;;;;16.60;3.10;;;8.40;99.90;;;;;;5026505;28;20049;-62
2022/01/21 12:23:25;;;;;;;22.83;4.38;;;8.40;99.90;;;;;;5029478;28;20038;-62
2022/01/21 12:26:09;;;;;;;26.48;4.60;;;8.40;99.90;;;;;;5028656;28;20069;-62
2022/01/21 12:28:36;;;;;;;27.45;3.78;;;8.40;99.90;;;;;;5017382;28;20553;-62
2022/01/21 12:31:02;;;;;;;34.13;4.03;;;8.30;99.90;;;;;;5009014;28;20054;-63
2022/01/21 12:36:28;;;;;;;26.25;4.88;;;8.20;99.90;;;;;;5009779;28;20060;-63
2022/01/21 12:41:22;;;;;;;33.03;5.78;;;8.10;99.90;;;;;;5014118;28;20518;-63
2022/01/21 12:43:57;;;;;;;19.95;3.75;;;8.10;99.90;;;;;;5025559;28;20053;-62
2022/01/21 12:46:22;;;;;;;16.88;2.50;;;8.10;99.90;;;;;;5016684;28;20042;-62
2022/01/21 12:48:49;;;;;;;30.63;5.00;;;8.00;99.90;;;;;;5002785;28;20050;-62
2022/01/21 12:51:31;;;;;;;18.27;2.90;;;8.00;99.90;;;;;;5019420;28;20056;-62
2022/01/21 12:56:45;;;;;;;19.73;3.20;;;8.00;99.90;;;;;;5029185;28;20143;-63
2022/01/21 12:59:15;;;;;;;30.20;5.25;;;7.90;99.90;;;;;;5024610;28;20505;-62
2022/01/21 13:01:42;;;;;;;18.58;3.78;;;7.90;99.90;;;;;;5008324;28;20486;-62
2022/01/21 13:04:15;;;;;;;29.98;3.90;;;7.90;99.90;;;;;;5009201;28;20045;-63
2022/01/21 13:07:10;;;;;;;28.35;5.00;;;7.90;99.90;;;;;;5027951;28;20095;-62
2022/01/21 13:10:14;;;;;;;27.30;4.15;;;8.00;99.90;;;;;;5028055;28;20124;-62
2022/01/21 13:12:58;;;;;;;26.73;5.13;;;7.90;99.90;;;;;;5023190;28;20551;-63
2022/01/21 13:15:43;;;;;;;28.48;4.57;;;7.90;99.90;;;;;;5027873;28;20108;-62
2022/01/21 13:18:16;;;;;;;24.25;5.05;;;7.90;99.90;;;;;;5011868;28;20046;-62
2022/01/21 13:20:45;;;;;;;31.42;5.25;;;7.90;99.90;;;;;;5007891;28;20052;-62
2022/01/21 13:23:13;;;;;;;22.35;4.93;;;7.90;99.90;;;;;;5008712;28;20056;-62
2022/01/21 13:25:39;;;;;;;14.60;3.60;;;7.90;99.90;;;;;;5014416;28;20054;-62
2022/01/21 13:28:05;;;;;;;20.52;4.65;;;8.00;99.90;;;;;;5007228;28;20042;-62
2022/01/21 13:30:37;;;;;;;27.00;4.70;;;8.00;99.90;;;;;;4990857;28;20127;-63
2022/01/21 13:33:09;;;;;;;28.85;4.78;;;8.00;99.90;;;;;;5025017;28;20049;-62
2022/01/21 13:35:38;;;;;;;26.98;5.55;;;8.00;99.90;;;;;;5024619;28;20612;-63
2022/01/21 13:38:09;;;;;;;22.48;4.65;;;8.00;99.90;;;;;;5007760;28;20034;-62
2022/01/21 13:40:41;;;;;;;26.17;4.55;;;8.00;99.90;;;;;;5008363;28;20057;-63
2022/01/21 13:43:18;;;;;;;22.83;4.68;;;8.00;99.90;;;;;;5021024;28;20041;-62
2022/01/21 13:46:02;;;;;;;35.35;5.53;;;8.00;99.90;;;;;;5028124;28;20528;-63
2022/01/21 13:48:30;;;;;;;26.52;4.97;;;7.90;99.90;;;;;;5028229;28;20409;-63